sensor_id;sensor_type;location;lat;lon;timestamp;temperature;humidity
61386;DHT22;47256;18.904;-99.054;2022-07-21T00:02:20;29.50;84.00
61386;DHT22;47256;18.904;-99.054;2022-07-21T00:04:47;29.50;83.50
61386;DHT22;47256;18.904;-99.054;2022-07-21T00:07:14;29.50;84.00
61386;DHT22;47256;18.904;-99.054;2022-07-21T00:09:41;29.50;82.80
61386;DHT22;47256;18.904;-99.054;2022-07-21T00:12:08;29.50;83.60
61386;DHT22;47256;18.904;-99.054;2022-07-21T00:14:36;29.40;83.70
61386;DHT22;47256;18.904;-99.054;2022-07-21T00:17:03;29.40;83.90
61386;DHT22;47256;18.904;-99.054;2022-07-21T00:19:31;29.40;85.50
61386;DHT22;47256;18.904;-99.054;2022-07-21T00:21:58;29.30;83.70
61386;DHT22;47256;18.904;-99.054;2022-07-21T00:24:25;29.30;84.50
61386;DHT22;47256;18.904;-99.054;2022-07-21T00:26:52;29.30;84.90
61386;DHT22;47256;18.904;-99.054;2022-07-21T00:29:20;29.40;84.00
61386;DHT22;47256;18.904;-99.054;2022-07-21T00:31:47;29.40;82.90
61386;DHT22;47256;18.904;-99.054;2022-07-21T00:34:15;29.50;83.90
61386;DHT22;47256;18.904;-99.054;2022-07-21T00:36:42;29.50;88.80
61386;DHT22;47256;18.904;-99.054;2022-07-21T00:39:09;29.50;88.00
61386;DHT22;47256;18.904;-99.054;2022-07-21T00:41:36;29.50;89.10
61386;DHT22;47256;18.904;-99.054;2022-07-21T00:44:04;29.60;87.90
61386;DHT22;47256;18.904;-99.054;2022-07-21T00:46:31;29.60;87.70
61386;DHT22;47256;18.904;-99.054;2022-07-21T00:48:59;29.50;89.00
61386;DHT22;47256;18.904;-99.054;2022-07-21T00:51:26;29.50;90.00
61386;DHT22;47256;18.904;-99.054;2022-07-21T00:53:53;29.50;90.00
61386;DHT22;47256;18.904;-99.054;2022-07-21T00:56:21;29.50;90.30
61386;DHT22;47256;18.904;-99.054;2022-07-21T00:58:48;29.50;91.00
61386;DHT22;47256;18.904;-99.054;2022-07-21T01:01:16;29.40;91.10
61386;DHT22;47256;18.904;-99.054;2022-07-21T01:03:43;29.40;90.80
61386;DHT22;47256;18.904;-99.054;2022-07-21T01:06:10;29.40;91.00
61386;DHT22;47256;18.904;-99.054;2022-07-21T01:08:37;29.30;91.30
61386;DHT22;47256;18.904;-99.054;2022-07-21T01:11:05;29.30;92.30
61386;DHT22;47256;18.904;-99.054;2022-07-21T01:13:33;29.20;92.60
61386;DHT22;47256;18.904;-99.054;2022-07-21T01:16:00;29.00;92.60
61386;DHT22;47256;18.904;-99.054;2022-07-21T01:18:28;28.80;92.70
61386;DHT22;47256;18.904;-99.054;2022-07-21T01:20:55;28.70;92.60
61386;DHT22;47256;18.904;-99.054;2022-07-21T01:23:24;28.50;90.60
61386;DHT22;47256;18.904;-99.054;2022-07-21T01:25:51;28.40;88.80
61386;DHT22;47256;18.904;-99.054;2022-07-21T01:28:19;28.20;89.10
61386;DHT22;47256;18.904;-99.054;2022-07-21T01:30:46;28.10;90.40
61386;DHT22;47256;18.904;-99.054;2022-07-21T01:33:15;27.80;89.40
61386;DHT22;47256;18.904;-99.054;2022-07-21T01:35:42;27.80;89.70
61386;DHT22;47256;18.904;-99.054;2022-07-21T01:38:11;27.70;88.80
61386;DHT22;47256;18.904;-99.054;2022-07-21T01:40:59;27.80;88.90
61386;DHT22;47256;18.904;-99.054;2022-07-21T01:43:46;27.80;88.30
61386;DHT22;47256;18.904;-99.054;2022-07-21T01:46:13;27.80;87.80
61386;DHT22;47256;18.904;-99.054;2022-07-21T01:48:44;27.70;86.30
61386;DHT22;47256;18.904;-99.054;2022-07-21T01:51:12;27.60;86.50
61386;DHT22;47256;18.904;-99.054;2022-07-21T01:53:40;27.50;87.10
61386;DHT22;47256;18.904;-99.054;2022-07-21T01:56:08;27.50;87.30
61386;DHT22;47256;18.904;-99.054;2022-07-21T01:58:36;27.60;87.90
61386;DHT22;47256;18.904;-99.054;2022-07-21T02:01:04;27.60;88.00
61386;DHT22;47256;18.904;-99.054;2022-07-21T02:03:32;27.60;87.80
61386;DHT22;47256;18.904;-99.054;2022-07-21T02:06:03;27.50;88.10
61386;DHT22;47256;18.904;-99.054;2022-07-21T02:08:32;27.40;89.60
61386;DHT22;47256;18.904;-99.054;2022-07-21T02:11:00;27.40;90.00
61386;DHT22;47256;18.904;-99.054;2022-07-21T02:13:30;27.30;89.50
61386;DHT22;47256;18.904;-99.054;2022-07-21T02:15:58;27.30;91.70
61386;DHT22;47256;18.904;-99.054;2022-07-21T02:18:27;27.10;91.50
61386;DHT22;47256;18.904;-99.054;2022-07-21T02:20:55;27.10;92.00
61386;DHT22;47256;18.904;-99.054;2022-07-21T02:23:25;27.10;91.80
61386;DHT22;47256;18.904;-99.054;2022-07-21T02:25:54;27.10;91.40
61386;DHT22;47256;18.904;-99.054;2022-07-21T02:28:24;27.20;91.10
61386;DHT22;47256;18.904;-99.054;2022-07-21T02:30:54;27.10;90.80
61386;DHT22;47256;18.904;-99.054;2022-07-21T02:33:23;27.20;90.80
61386;DHT22;47256;18.904;-99.054;2022-07-21T02:35:51;27.10;90.80
61386;DHT22;47256;18.904;-99.054;2022-07-21T02:38:20;27.00;91.10
61386;DHT22;47256;18.904;-99.054;2022-07-21T02:40:49;27.00;91.50
61386;DHT22;47256;18.904;-99.054;2022-07-21T02:43:17;26.90;91.50
61386;DHT22;47256;18.904;-99.054;2022-07-21T02:45:45;26.90;92.00
61386;DHT22;47256;18.904;-99.054;2022-07-21T02:48:13;26.90;92.70
61386;DHT22;47256;18.904;-99.054;2022-07-21T02:50:43;26.90;92.10
61386;DHT22;47256;18.904;-99.054;2022-07-21T02:53:16;26.90;92.60
61386;DHT22;47256;18.904;-99.054;2022-07-21T02:55:50;26.90;92.10
61386;DHT22;47256;18.904;-99.054;2022-07-21T02:58:25;26.90;91.90
61386;DHT22;47256;18.904;-99.054;2022-07-21T03:01:02;27.00;93.00
61386;DHT22;47256;18.904;-99.054;2022-07-21T03:03:35;26.90;93.40
61386;DHT22;47256;18.904;-99.054;2022-07-21T03:06:05;26.90;93.20
61386;DHT22;47256;18.904;-99.054;2022-07-21T03:08:33;26.80;93.90
61386;DHT22;47256;18.904;-99.054;2022-07-21T03:11:02;26.70;93.60
61386;DHT22;47256;18.904;-99.054;2022-07-21T03:13:31;26.60;93.50
61386;DHT22;47256;18.904;-99.054;2022-07-21T03:16:00;26.60;93.40
61386;DHT22;47256;18.904;-99.054;2022-07-21T03:18:29;26.70;94.00
61386;DHT22;47256;18.904;-99.054;2022-07-21T03:20:57;26.80;94.20
61386;DHT22;47256;18.904;-99.054;2022-07-21T03:23:26;26.80;94.10
61386;DHT22;47256;18.904;-99.054;2022-07-21T03:25:54;26.80;94.20
61386;DHT22;47256;18.904;-99.054;2022-07-21T03:28:22;26.80;94.40
61386;DHT22;47256;18.904;-99.054;2022-07-21T03:30:51;26.70;94.20
61386;DHT22;47256;18.904;-99.054;2022-07-21T03:33:19;26.70;94.00
61386;DHT22;47256;18.904;-99.054;2022-07-21T03:35:47;26.50;94.10
61386;DHT22;47256;18.904;-99.054;2022-07-21T03:38:16;26.40;94.40
61386;DHT22;47256;18.904;-99.054;2022-07-21T03:40:44;26.30;94.60
61386;DHT22;47256;18.904;-99.054;2022-07-21T03:43:12;26.40;94.90
61386;DHT22;47256;18.904;-99.054;2022-07-21T03:45:40;26.40;94.80
61386;DHT22;47256;18.904;-99.054;2022-07-21T03:48:09;26.40;94.80
61386;DHT22;47256;18.904;-99.054;2022-07-21T03:50:40;26.40;94.90
61386;DHT22;47256;18.904;-99.054;2022-07-21T03:53:10;26.40;95.10
61386;DHT22;47256;18.904;-99.054;2022-07-21T03:55:38;26.40;94.90
61386;DHT22;47256;18.904;-99.054;2022-07-21T03:58:06;26.30;94.60
61386;DHT22;47256;18.904;-99.054;2022-07-21T04:00:38;26.30;95.00
61386;DHT22;47256;18.904;-99.054;2022-07-21T04:03:07;26.30;94.80
61386;DHT22;47256;18.904;-99.054;2022-07-21T04:05:38;26.30;94.70
61386;DHT22;47256;18.904;-99.054;2022-07-21T04:08:07;26.30;94.80
61386;DHT22;47256;18.904;-99.054;2022-07-21T04:10:36;26.30;95.00
61386;DHT22;47256;18.904;-99.054;2022-07-21T04:13:07;26.30;94.90
61386;DHT22;47256;18.904;-99.054;2022-07-21T04:15:35;26.30;94.90
61386;DHT22;47256;18.904;-99.054;2022-07-21T04:18:03;26.30;95.20
61386;DHT22;47256;18.904;-99.054;2022-07-21T04:20:32;26.20;95.70
61386;DHT22;47256;18.904;-99.054;2022-07-21T04:22:59;26.10;95.30
61386;DHT22;47256;18.904;-99.054;2022-07-21T04:25:27;26.10;95.20
61386;DHT22;47256;18.904;-99.054;2022-07-21T04:27:57;26.10;95.00
61386;DHT22;47256;18.904;-99.054;2022-07-21T04:30:24;26.10;94.80
61386;DHT22;47256;18.904;-99.054;2022-07-21T04:32:51;26.10;94.80
61386;DHT22;47256;18.904;-99.054;2022-07-21T04:35:19;26.00;94.50
61386;DHT22;47256;18.904;-99.054;2022-07-21T04:37:47;26.00;94.90
61386;DHT22;47256;18.904;-99.054;2022-07-21T04:40:15;25.90;95.90
61386;DHT22;47256;18.904;-99.054;2022-07-21T04:42:43;25.90;95.50
61386;DHT22;47256;18.904;-99.054;2022-07-21T04:45:13;25.90;95.20
61386;DHT22;47256;18.904;-99.054;2022-07-21T04:47:53;25.90;95.40
61386;DHT22;47256;18.904;-99.054;2022-07-21T04:50:25;25.80;95.60
61386;DHT22;47256;18.904;-99.054;2022-07-21T04:52:52;25.80;95.80
61386;DHT22;47256;18.904;-99.054;2022-07-21T04:55:21;25.80;96.40
61386;DHT22;47256;18.904;-99.054;2022-07-21T04:57:50;25.80;96.70
61386;DHT22;47256;18.904;-99.054;2022-07-21T05:00:23;25.80;96.30
61386;DHT22;47256;18.904;-99.054;2022-07-21T05:02:53;25.80;96.30
61386;DHT22;47256;18.904;-99.054;2022-07-21T05:05:21;25.80;97.00
61386;DHT22;47256;18.904;-99.054;2022-07-21T05:07:49;25.80;97.10
61386;DHT22;47256;18.904;-99.054;2022-07-21T05:10:17;25.70;97.30
61386;DHT22;47256;18.904;-99.054;2022-07-21T05:12:44;25.60;97.70
61386;DHT22;47256;18.904;-99.054;2022-07-21T05:15:12;25.60;97.10
61386;DHT22;47256;18.904;-99.054;2022-07-21T05:17:40;25.70;97.30
61386;DHT22;47256;18.904;-99.054;2022-07-21T05:20:08;25.70;97.30
61386;DHT22;47256;18.904;-99.054;2022-07-21T05:22:36;25.60;97.40
61386;DHT22;47256;18.904;-99.054;2022-07-21T05:25:04;25.60;97.70
61386;DHT22;47256;18.904;-99.054;2022-07-21T05:27:31;25.60;98.10
61386;DHT22;47256;18.904;-99.054;2022-07-21T05:29:58;25.60;97.90
61386;DHT22;47256;18.904;-99.054;2022-07-21T05:32:25;25.60;98.20
61386;DHT22;47256;18.904;-99.054;2022-07-21T05:34:52;25.50;98.20
61386;DHT22;47256;18.904;-99.054;2022-07-21T05:37:19;25.50;98.40
61386;DHT22;47256;18.904;-99.054;2022-07-21T05:39:46;25.40;98.80
61386;DHT22;47256;18.904;-99.054;2022-07-21T05:42:13;25.40;99.20
61386;DHT22;47256;18.904;-99.054;2022-07-21T05:44:41;25.40;98.90
61386;DHT22;47256;18.904;-99.054;2022-07-21T05:47:08;25.40;98.60
61386;DHT22;47256;18.904;-99.054;2022-07-21T05:49:35;25.50;98.40
61386;DHT22;47256;18.904;-99.054;2022-07-21T05:52:02;25.60;98.30
61386;DHT22;47256;18.904;-99.054;2022-07-21T05:54:29;25.60;98.20
61386;DHT22;47256;18.904;-99.054;2022-07-21T05:56:56;25.60;98.40
61386;DHT22;47256;18.904;-99.054;2022-07-21T05:59:24;25.60;98.80
61386;DHT22;47256;18.904;-99.054;2022-07-21T06:01:51;25.60;98.30
61386;DHT22;47256;18.904;-99.054;2022-07-21T06:04:19;25.60;98.40
61386;DHT22;47256;18.904;-99.054;2022-07-21T06:06:46;25.60;98.30
61386;DHT22;47256;18.904;-99.054;2022-07-21T06:09:13;25.60;98.50
61386;DHT22;47256;18.904;-99.054;2022-07-21T06:11:40;25.60;98.70
61386;DHT22;47256;18.904;-99.054;2022-07-21T06:14:07;25.50;99.00
61386;DHT22;47256;18.904;-99.054;2022-07-21T06:16:34;25.50;99.20
61386;DHT22;47256;18.904;-99.054;2022-07-21T06:19:02;25.50;99.70
61386;DHT22;47256;18.904;-99.054;2022-07-21T06:21:29;25.50;99.60
61386;DHT22;47256;18.904;-99.054;2022-07-21T06:23:56;25.50;99.90
61386;DHT22;47256;18.904;-99.054;2022-07-21T06:26:23;25.40;99.60
61386;DHT22;47256;18.904;-99.054;2022-07-21T06:28:51;25.40;99.90
61386;DHT22;47256;18.904;-99.054;2022-07-21T06:31:18;25.20;99.90
61386;DHT22;47256;18.904;-99.054;2022-07-21T06:33:45;25.10;99.90
61386;DHT22;47256;18.904;-99.054;2022-07-21T06:36:12;25.20;99.90
61386;DHT22;47256;18.904;-99.054;2022-07-21T06:38:39;25.20;99.90
61386;DHT22;47256;18.904;-99.054;2022-07-21T06:41:06;25.20;99.90
61386;DHT22;47256;18.904;-99.054;2022-07-21T06:43:34;25.20;99.90
61386;DHT22;47256;18.904;-99.054;2022-07-21T06:46:02;25.30;99.90
61386;DHT22;47256;18.904;-99.054;2022-07-21T06:48:31;25.30;99.90
61386;DHT22;47256;18.904;-99.054;2022-07-21T06:50:58;25.30;99.80
61386;DHT22;47256;18.904;-99.054;2022-07-21T06:53:27;25.30;99.80
61386;DHT22;47256;18.904;-99.054;2022-07-21T06:55:54;25.30;99.90
61386;DHT22;47256;18.904;-99.054;2022-07-21T06:58:23;25.30;99.90
61386;DHT22;47256;18.904;-99.054;2022-07-21T07:00:51;25.40;99.90
61386;DHT22;47256;18.904;-99.054;2022-07-21T07:03:20;25.40;99.90
61386;DHT22;47256;18.904;-99.054;2022-07-21T07:05:48;25.30;99.90
61386;DHT22;47256;18.904;-99.054;2022-07-21T07:08:16;25.20;99.90
61386;DHT22;47256;18.904;-99.054;2022-07-21T07:10:45;25.20;99.90
61386;DHT22;47256;18.904;-99.054;2022-07-21T07:13:15;25.20;99.90
61386;DHT22;47256;18.904;-99.054;2022-07-21T07:15:44;25.20;99.90
61386;DHT22;47256;18.904;-99.054;2022-07-21T07:18:12;25.30;99.90
61386;DHT22;47256;18.904;-99.054;2022-07-21T07:20:39;25.30;99.90
61386;DHT22;47256;18.904;-99.054;2022-07-21T07:23:07;25.30;99.90
61386;DHT22;47256;18.904;-99.054;2022-07-21T07:25:35;25.30;99.90
61386;DHT22;47256;18.904;-99.054;2022-07-21T07:28:04;25.30;99.90
61386;DHT22;47256;18.904;-99.054;2022-07-21T07:30:33;25.20;99.90
61386;DHT22;47256;18.904;-99.054;2022-07-21T07:33:02;25.10;99.90
61386;DHT22;47256;18.904;-99.054;2022-07-21T07:35:30;25.20;99.90
61386;DHT22;47256;18.904;-99.054;2022-07-21T07:37:57;25.20;99.90
61386;DHT22;47256;18.904;-99.054;2022-07-21T07:40:26;25.20;99.90
61386;DHT22;47256;18.904;-99.054;2022-07-21T07:42:53;25.20;99.90
61386;DHT22;47256;18.904;-99.054;2022-07-21T07:45:21;25.20;99.90
61386;DHT22;47256;18.904;-99.054;2022-07-21T07:47:49;25.20;99.90
61386;DHT22;47256;18.904;-99.054;2022-07-21T07:50:16;25.10;99.90
61386;DHT22;47256;18.904;-99.054;2022-07-21T07:52:44;25.20;99.90
61386;DHT22;47256;18.904;-99.054;2022-07-21T07:55:12;25.20;99.90
61386;DHT22;47256;18.904;-99.054;2022-07-21T07:57:41;25.20;99.90
61386;DHT22;47256;18.904;-99.054;2022-07-21T08:00:15;25.30;99.90
61386;DHT22;47256;18.904;-99.054;2022-07-21T08:02:43;25.30;99.90
61386;DHT22;47256;18.904;-99.054;2022-07-21T08:05:10;25.30;99.90
61386;DHT22;47256;18.904;-99.054;2022-07-21T08:07:38;25.20;99.90
61386;DHT22;47256;18.904;-99.054;2022-07-21T08:10:07;25.10;99.90
61386;DHT22;47256;18.904;-99.054;2022-07-21T08:12:35;25.00;99.90
61386;DHT22;47256;18.904;-99.054;2022-07-21T08:15:03;25.00;99.90
61386;DHT22;47256;18.904;-99.054;2022-07-21T08:17:31;25.10;99.90
61386;DHT22;47256;18.904;-99.054;2022-07-21T08:19:58;25.10;99.90
61386;DHT22;47256;18.904;-99.054;2022-07-21T08:22:26;25.00;99.90
61386;DHT22;47256;18.904;-99.054;2022-07-21T08:24:53;25.00;99.90
61386;DHT22;47256;18.904;-99.054;2022-07-21T08:27:20;25.00;99.90
61386;DHT22;47256;18.904;-99.054;2022-07-21T08:29:47;25.00;99.90
61386;DHT22;47256;18.904;-99.054;2022-07-21T08:32:17;25.00;99.90
61386;DHT22;47256;18.904;-99.054;2022-07-21T08:34:45;25.00;99.90
61386;DHT22;47256;18.904;-99.054;2022-07-21T08:37:12;25.00;99.90
61386;DHT22;47256;18.904;-99.054;2022-07-21T08:39:39;25.00;99.90
61386;DHT22;47256;18.904;-99.054;2022-07-21T08:42:07;25.00;99.90
61386;DHT22;47256;18.904;-99.054;2022-07-21T08:44:35;24.90;99.90
61386;DHT22;47256;18.904;-99.054;2022-07-21T08:47:02;24.80;99.90
61386;DHT22;47256;18.904;-99.054;2022-07-21T08:49:35;24.80;99.90
61386;DHT22;47256;18.904;-99.054;2022-07-21T08:52:02;24.80;99.90
61386;DHT22;47256;18.904;-99.054;2022-07-21T08:54:29;24.90;99.90
61386;DHT22;47256;18.904;-99.054;2022-07-21T08:56:58;24.90;99.90
61386;DHT22;47256;18.904;-99.054;2022-07-21T08:59:25;24.90;99.90
61386;DHT22;47256;18.904;-99.054;2022-07-21T09:01:53;24.90;99.90
61386;DHT22;47256;18.904;-99.054;2022-07-21T09:04:29;24.90;99.90
61386;DHT22;47256;18.904;-99.054;2022-07-21T09:07:02;25.00;99.90
61386;DHT22;47256;18.904;-99.054;2022-07-21T09:09:32;25.00;99.90
61386;DHT22;47256;18.904;-99.054;2022-07-21T09:12:00;25.00;99.90
61386;DHT22;47256;18.904;-99.054;2022-07-21T09:14:33;24.90;99.90
61386;DHT22;47256;18.904;-99.054;2022-07-21T09:17:03;24.90;99.90
61386;DHT22;47256;18.904;-99.054;2022-07-21T09:19:44;24.90;99.90
61386;DHT22;47256;18.904;-99.054;2022-07-21T09:22:15;24.80;99.90
61386;DHT22;47256;18.904;-99.054;2022-07-21T09:24:52;24.80;99.90
61386;DHT22;47256;18.904;-99.054;2022-07-21T09:27:26;24.80;99.90
61386;DHT22;47256;18.904;-99.054;2022-07-21T09:29:57;24.70;99.90
61386;DHT22;47256;18.904;-99.054;2022-07-21T09:32:28;24.60;99.90
61386;DHT22;47256;18.904;-99.054;2022-07-21T09:35:03;24.60;99.90
61386;DHT22;47256;18.904;-99.054;2022-07-21T09:46:03;24.60;99.90
61386;DHT22;47256;18.904;-99.054;2022-07-21T09:48:36;24.60;99.90
61386;DHT22;47256;18.904;-99.054;2022-07-21T09:51:32;24.60;99.90
61386;DHT22;47256;18.904;-99.054;2022-07-21T09:54:13;24.50;99.90
61386;DHT22;47256;18.904;-99.054;2022-07-21T09:56:44;24.50;99.90
61386;DHT22;47256;18.904;-99.054;2022-07-21T09:59:13;24.40;99.90
61386;DHT22;47256;18.904;-99.054;2022-07-21T10:01:40;24.40;99.90
61386;DHT22;47256;18.904;-99.054;2022-07-21T10:04:09;24.40;99.90
61386;DHT22;47256;18.904;-99.054;2022-07-21T10:06:38;24.30;99.90
61386;DHT22;47256;18.904;-99.054;2022-07-21T10:09:08;24.20;99.90
61386;DHT22;47256;18.904;-99.054;2022-07-21T10:11:35;24.10;99.90
61386;DHT22;47256;18.904;-99.054;2022-07-21T10:14:03;24.10;99.90
61386;DHT22;47256;18.904;-99.054;2022-07-21T10:16:30;24.10;99.90
61386;DHT22;47256;18.904;-99.054;2022-07-21T10:22:01;24.10;99.90
61386;DHT22;47256;18.904;-99.054;2022-07-21T10:24:23;24.10;99.90
61386;DHT22;47256;18.904;-99.054;2022-07-21T10:27:08;24.10;99.90
61386;DHT22;47256;18.904;-99.054;2022-07-21T10:29:52;24.10;99.90
61386;DHT22;47256;18.904;-99.054;2022-07-21T10:32:23;24.10;99.90
61386;DHT22;47256;18.904;-99.054;2022-07-21T10:34:54;24.20;99.90
61386;DHT22;47256;18.904;-99.054;2022-07-21T10:45:40;24.00;99.90
61386;DHT22;47256;18.904;-99.054;2022-07-21T10:51:12;24.00;99.90
61386;DHT22;47256;18.904;-99.054;2022-07-21T10:53:41;24.00;99.90
61386;DHT22;47256;18.904;-99.054;2022-07-21T10:56:08;23.90;99.90
61386;DHT22;47256;18.904;-99.054;2022-07-21T10:58:52;23.90;99.90
61386;DHT22;47256;18.904;-99.054;2022-07-21T11:01:21;23.90;99.90
61386;DHT22;47256;18.904;-99.054;2022-07-21T11:04:13;23.80;99.90
61386;DHT22;47256;18.904;-99.054;2022-07-21T11:06:44;23.80;99.90
61386;DHT22;47256;18.904;-99.054;2022-07-21T11:09:16;23.80;99.90
61386;DHT22;47256;18.904;-99.054;2022-07-21T11:14:15;23.70;99.90
61386;DHT22;47256;18.904;-99.054;2022-07-21T11:17:06;23.60;99.90
61386;DHT22;47256;18.904;-99.054;2022-07-21T11:22:27;23.60;99.90
61386;DHT22;47256;18.904;-99.054;2022-07-21T11:24:59;23.60;99.90
61386;DHT22;47256;18.904;-99.054;2022-07-21T11:27:29;23.60;99.90
61386;DHT22;47256;18.904;-99.054;2022-07-21T11:29:59;23.60;99.90
61386;DHT22;47256;18.904;-99.054;2022-07-21T11:32:26;23.60;99.90
61386;DHT22;47256;18.904;-99.054;2022-07-21T11:34:59;23.60;99.90
61386;DHT22;47256;18.904;-99.054;2022-07-21T11:37:31;23.50;99.90
61386;DHT22;47256;18.904;-99.054;2022-07-21T11:39:59;23.50;99.90
61386;DHT22;47256;18.904;-99.054;2022-07-21T11:42:27;23.40;99.90
61386;DHT22;47256;18.904;-99.054;2022-07-21T11:44:57;23.30;99.90
61386;DHT22;47256;18.904;-99.054;2022-07-21T11:47:24;23.20;99.90
61386;DHT22;47256;18.904;-99.054;2022-07-21T11:49:57;23.20;99.90
61386;DHT22;47256;18.904;-99.054;2022-07-21T11:52:26;23.20;99.90
61386;DHT22;47256;18.904;-99.054;2022-07-21T11:54:55;23.20;99.90
61386;DHT22;47256;18.904;-99.054;2022-07-21T11:57:24;23.10;99.90
61386;DHT22;47256;18.904;-99.054;2022-07-21T11:59:52;23.10;99.90
61386;DHT22;47256;18.904;-99.054;2022-07-21T12:02:22;23.10;99.90
61386;DHT22;47256;18.904;-99.054;2022-07-21T12:04:51;23.10;99.90
61386;DHT22;47256;18.904;-99.054;2022-07-21T12:07:39;23.10;99.90
61386;DHT22;47256;18.904;-99.054;2022-07-21T12:10:09;23.20;99.90
61386;DHT22;47256;18.904;-99.054;2022-07-21T12:12:42;23.20;99.90
61386;DHT22;47256;18.904;-99.054;2022-07-21T12:20:10;23.10;99.90
61386;DHT22;47256;18.904;-99.054;2022-07-21T12:22:44;23.00;99.90
61386;DHT22;47256;18.904;-99.054;2022-07-21T12:25:14;23.10;99.90
61386;DHT22;47256;18.904;-99.054;2022-07-21T12:27:46;23.10;99.90
61386;DHT22;47256;18.904;-99.054;2022-07-21T12:30:39;23.10;99.90
61386;DHT22;47256;18.904;-99.054;2022-07-21T12:33:09;23.10;99.90
61386;DHT22;47256;18.904;-99.054;2022-07-21T12:35:41;23.00;99.90
61386;DHT22;47256;18.904;-99.054;2022-07-21T12:38:13;23.00;99.90
61386;DHT22;47256;18.904;-99.054;2022-07-21T12:40:46;23.00;99.90
61386;DHT22;47256;18.904;-99.054;2022-07-21T12:43:17;23.00;99.90
61386;DHT22;47256;18.904;-99.054;2022-07-21T12:48:14;22.90;99.90
61386;DHT22;47256;18.904;-99.054;2022-07-21T12:50:42;23.00;99.90
61386;DHT22;47256;18.904;-99.054;2022-07-21T12:53:11;23.00;99.90
61386;DHT22;47256;18.904;-99.054;2022-07-21T12:55:39;23.00;99.90
61386;DHT22;47256;18.904;-99.054;2022-07-21T12:58:06;23.00;99.90
61386;DHT22;47256;18.904;-99.054;2022-07-21T13:00:33;23.00;99.90
61386;DHT22;47256;18.904;-99.054;2022-07-21T13:03:00;22.90;99.90
61386;DHT22;47256;18.904;-99.054;2022-07-21T13:05:27;22.90;99.90
61386;DHT22;47256;18.904;-99.054;2022-07-21T13:07:55;22.80;99.90
61386;DHT22;47256;18.904;-99.054;2022-07-21T13:10:22;22.80;99.90
61386;DHT22;47256;18.904;-99.054;2022-07-21T13:12:49;22.80;99.90
61386;DHT22;47256;18.904;-99.054;2022-07-21T13:15:17;22.80;99.90
61386;DHT22;47256;18.904;-99.054;2022-07-21T13:17:44;22.70;99.90
61386;DHT22;47256;18.904;-99.054;2022-07-21T13:20:12;22.70;99.90
61386;DHT22;47256;18.904;-99.054;2022-07-21T13:22:40;22.80;99.90
61386;DHT22;47256;18.904;-99.054;2022-07-21T13:25:09;22.80;99.90
61386;DHT22;47256;18.904;-99.054;2022-07-21T13:27:37;22.90;99.90
61386;DHT22;47256;18.904;-99.054;2022-07-21T13:30:06;23.00;99.90
61386;DHT22;47256;18.904;-99.054;2022-07-21T13:32:34;23.00;99.90
61386;DHT22;47256;18.904;-99.054;2022-07-21T13:35:02;23.10;99.90
61386;DHT22;47256;18.904;-99.054;2022-07-21T13:37:29;23.20;99.90
61386;DHT22;47256;18.904;-99.054;2022-07-21T13:39:56;23.20;99.90
61386;DHT22;47256;18.904;-99.054;2022-07-21T13:42:23;23.10;99.90
61386;DHT22;47256;18.904;-99.054;2022-07-21T13:44:50;23.20;99.90
61386;DHT22;47256;18.904;-99.054;2022-07-21T13:47:17;23.30;99.90
61386;DHT22;47256;18.904;-99.054;2022-07-21T13:49:44;23.40;99.90
61386;DHT22;47256;18.904;-99.054;2022-07-21T13:52:12;23.40;99.90
61386;DHT22;47256;18.904;-99.054;2022-07-21T13:54:39;23.60;99.90
61386;DHT22;47256;18.904;-99.054;2022-07-21T13:57:06;23.60;99.90
61386;DHT22;47256;18.904;-99.054;2022-07-21T13:59:33;23.70;99.90
61386;DHT22;47256;18.904;-99.054;2022-07-21T14:02:00;23.60;99.90
61386;DHT22;47256;18.904;-99.054;2022-07-21T14:04:27;23.60;99.90
61386;DHT22;47256;18.904;-99.054;2022-07-21T14:06:54;23.70;99.90
61386;DHT22;47256;18.904;-99.054;2022-07-21T14:09:21;23.70;99.90
61386;DHT22;47256;18.904;-99.054;2022-07-21T14:11:49;23.80;99.90
61386;DHT22;47256;18.904;-99.054;2022-07-21T14:14:16;23.90;99.90
61386;DHT22;47256;18.904;-99.054;2022-07-21T14:16:49;24.00;99.90
61386;DHT22;47256;18.904;-99.054;2022-07-21T14:19:16;24.00;99.90
61386;DHT22;47256;18.904;-99.054;2022-07-21T14:21:44;24.10;99.70
61386;DHT22;47256;18.904;-99.054;2022-07-21T14:24:11;24.10;99.60
61386;DHT22;47256;18.904;-99.054;2022-07-21T14:26:57;24.30;99.60
61386;DHT22;47256;18.904;-99.054;2022-07-21T14:29:24;24.30;99.40
61386;DHT22;47256;18.904;-99.054;2022-07-21T14:31:51;24.30;99.40
61386;DHT22;47256;18.904;-99.054;2022-07-21T14:34:18;24.40;99.90
61386;DHT22;47256;18.904;-99.054;2022-07-21T14:36:46;24.50;99.90
61386;DHT22;47256;18.904;-99.054;2022-07-21T14:39:21;24.50;99.90
61386;DHT22;47256;18.904;-99.054;2022-07-21T14:41:48;24.60;99.90
61386;DHT22;47256;18.904;-99.054;2022-07-21T14:44:16;24.70;99.90
61386;DHT22;47256;18.904;-99.054;2022-07-21T14:46:43;24.80;99.90
61386;DHT22;47256;18.904;-99.054;2022-07-21T14:49:10;24.90;99.90
61386;DHT22;47256;18.904;-99.054;2022-07-21T14:51:37;25.00;99.90
61386;DHT22;47256;18.904;-99.054;2022-07-21T14:54:05;25.20;99.90
61386;DHT22;47256;18.904;-99.054;2022-07-21T14:56:32;25.20;98.50
61386;DHT22;47256;18.904;-99.054;2022-07-21T14:58:59;25.30;99.90
61386;DHT22;47256;18.904;-99.054;2022-07-21T15:01:26;25.50;99.70
61386;DHT22;47256;18.904;-99.054;2022-07-21T15:03:53;25.60;99.10
61386;DHT22;47256;18.904;-99.054;2022-07-21T15:06:20;25.70;98.40
61386;DHT22;47256;18.904;-99.054;2022-07-21T15:08:47;25.80;97.30
61386;DHT22;47256;18.904;-99.054;2022-07-21T15:11:15;25.90;96.60
61386;DHT22;47256;18.904;-99.054;2022-07-21T15:13:44;26.00;96.30
61386;DHT22;47256;18.904;-99.054;2022-07-21T15:16:11;26.20;95.80
61386;DHT22;47256;18.904;-99.054;2022-07-21T15:18:38;26.20;95.80
61386;DHT22;47256;18.904;-99.054;2022-07-21T15:21:05;26.20;95.80
61386;DHT22;47256;18.904;-99.054;2022-07-21T15:23:32;26.30;96.60
61386;DHT22;47256;18.904;-99.054;2022-07-21T15:25:59;26.40;96.00
61386;DHT22;47256;18.904;-99.054;2022-07-21T15:28:27;26.50;96.00
61386;DHT22;47256;18.904;-99.054;2022-07-21T15:30:54;26.50;96.40
61386;DHT22;47256;18.904;-99.054;2022-07-21T15:33:21;26.60;96.10
61386;DHT22;47256;18.904;-99.054;2022-07-21T15:35:48;26.70;96.20
61386;DHT22;47256;18.904;-99.054;2022-07-21T15:38:21;26.70;95.50
61386;DHT22;47256;18.904;-99.054;2022-07-21T15:40:49;26.80;94.90
61386;DHT22;47256;18.904;-99.054;2022-07-21T15:43:17;26.90;95.00
61386;DHT22;47256;18.904;-99.054;2022-07-21T15:45:45;27.00;94.40
61386;DHT22;47256;18.904;-99.054;2022-07-21T15:48:13;27.00;93.70
61386;DHT22;47256;18.904;-99.054;2022-07-21T15:50:40;27.10;92.70